createdAt,value
2022-10-22T00:00:06.930Z,39.00
2022-10-22T00:03:02.838Z,40.40
2022-10-22T00:05:39.317Z,40.30
2022-10-22T00:08:15.606Z,47.00
2022-10-22T00:10:52.920Z,36.60
2022-10-22T00:13:29.231Z,31.90
2022-10-22T00:16:05.226Z,36.50
2022-10-22T00:18:41.439Z,35.60
2022-10-22T00:21:17.327Z,34.30
2022-10-22T00:23:53.165Z,39.60
2022-10-22T00:26:29.223Z,36.40
2022-10-22T00:29:05.076Z,34.50
2022-10-22T00:31:40.970Z,41.30
2022-10-22T00:34:17.151Z,36.50
2022-10-22T00:36:54.383Z,37.90
2022-10-22T00:39:32.134Z,40.40
2022-10-22T00:42:08.597Z,39.80
2022-10-22T00:45:21.982Z,45.30
2022-10-22T00:48:05.709Z,43.20
2022-10-22T00:50:48.197Z,42.00
2022-10-22T00:53:31.300Z,39.80
2022-10-22T00:56:08.993Z,38.40
2022-10-22T00:58:51.280Z,40.50
2022-10-22T01:01:32.817Z,40.10
2022-10-22T01:04:08.864Z,41.80
2022-10-22T01:06:44.825Z,38.30
2022-10-22T01:09:33.964Z,38.30
2022-10-22T01:12:20.306Z,37.00
2022-10-22T01:15:17.050Z,35.90
2022-10-22T01:18:03.700Z,41.80
2022-10-22T01:21:04.711Z,40.50
2022-10-22T01:24:31.233Z,43.20
2022-10-22T01:27:32.925Z,39.20
2022-10-22T01:30:14.116Z,35.50
2022-10-22T01:32:57.344Z,38.30
2022-10-22T01:35:39.269Z,37.90
2022-10-22T01:40:55.849Z,35.60
2022-10-22T01:43:31.570Z,38.90
2022-10-22T01:46:13.509Z,35.20
2022-10-22T01:49:16.242Z,37.90
2022-10-22T01:52:16.702Z,38.30
2022-10-22T01:55:08.029Z,42.20
2022-10-22T01:57:58.104Z,41.70
2022-10-22T02:00:35.241Z,40.90
2022-10-22T02:03:22.817Z,39.70
2022-10-22T02:06:05.789Z,33.70
2022-10-22T02:11:18.422Z,38.80
2022-10-22T02:14:02.388Z,32.80
2022-10-22T02:16:43.962Z,34.90
2022-10-22T02:19:28.940Z,35.30
2022-10-22T02:22:05.509Z,34.60
2022-10-22T02:24:41.771Z,38.00
2022-10-22T02:27:28.169Z,35.50
2022-10-22T02:30:09.861Z,32.10
2022-10-22T02:32:56.750Z,38.40
2022-10-22T02:35:34.232Z,40.90
2022-10-22T02:38:11.707Z,35.50
2022-10-22T02:40:48.082Z,32.50
2022-10-22T02:43:26.626Z,35.10
2022-10-22T02:46:02.549Z,36.00
2022-10-22T02:48:38.373Z,37.10
2022-10-22T02:51:14.600Z,35.60
2022-10-22T02:53:50.431Z,34.50
2022-10-22T02:56:26.223Z,38.40
2022-10-22T02:59:02.149Z,37.20
2022-10-22T03:01:38.023Z,35.10
2022-10-22T03:04:14.077Z,36.60
2022-10-22T03:06:49.904Z,36.00
2022-10-22T03:09:25.891Z,37.80
2022-10-22T03:12:01.743Z,35.30
2022-10-22T03:14:37.764Z,35.20
2022-10-22T03:17:14.594Z,38.40
2022-10-22T03:19:50.456Z,35.70
2022-10-22T03:22:31.874Z,40.50
2022-10-22T03:25:17.545Z,38.70
2022-10-22T03:27:57.120Z,41.80
2022-10-22T03:30:33.078Z,37.50
2022-10-22T03:33:09.073Z,37.20
2022-10-22T03:35:49.674Z,39.80
2022-10-22T03:38:26.032Z,117.90
2022-10-22T03:41:02.081Z,45.50
2022-10-22T03:43:41.698Z,41.30
2022-10-22T03:46:17.454Z,39.00
2022-10-22T03:48:53.434Z,39.00
2022-10-22T03:51:31.057Z,37.20
2022-10-22T03:54:07.632Z,46.80
2022-10-22T03:56:43.600Z,42.90
2022-10-22T03:59:19.672Z,46.90
2022-10-22T04:01:55.463Z,43.80
2022-10-22T04:04:31.380Z,47.20
2022-10-22T04:07:08.248Z,43.30
2022-10-22T04:09:44.046Z,48.40
2022-10-22T04:12:19.855Z,41.70
2022-10-22T04:14:55.898Z,46.80
2022-10-22T04:17:36.267Z,47.60
2022-10-22T04:20:14.705Z,43.50
2022-10-22T04:22:50.584Z,44.70
2022-10-22T04:25:26.496Z,42.10
2022-10-22T04:28:02.449Z,46.50
2022-10-22T04:30:38.813Z,45.40
2022-10-22T04:33:14.779Z,47.60
2022-10-22T04:35:50.610Z,40.00
2022-10-22T04:38:26.629Z,45.50
2022-10-22T04:41:11.808Z,46.10
2022-10-22T04:43:48.323Z,49.60
2022-10-22T04:46:25.921Z,53.20
2022-10-22T04:49:03.829Z,48.70
2022-10-22T04:51:39.673Z,48.40
2022-10-22T04:54:15.576Z,49.40
2022-10-22T04:56:51.412Z,114.20
2022-10-22T04:59:27.301Z,173.20
2022-10-22T05:02:03.094Z,66.10
2022-10-22T05:04:38.979Z,60.50
2022-10-22T05:07:15.373Z,54.40
2022-10-22T05:09:51.285Z,51.70
2022-10-22T05:12:27.158Z,51.10
2022-10-22T05:15:03.381Z,49.90
2022-10-22T05:17:41.411Z,56.10
2022-10-22T05:20:18.504Z,51.80
2022-10-22T05:22:54.427Z,49.30
2022-10-22T05:25:31.214Z,47.00
2022-10-22T05:28:07.267Z,48.80
2022-10-22T05:30:43.113Z,46.10
2022-10-22T05:33:23.334Z,49.30
2022-10-22T05:36:00.699Z,51.30
2022-10-22T05:38:38.549Z,53.20
2022-10-22T05:41:18.236Z,53.40
2022-10-22T05:43:58.047Z,57.20
2022-10-22T05:46:39.433Z,53.00
2022-10-22T05:49:19.349Z,56.40
2022-10-22T05:51:55.171Z,52.20
2022-10-22T05:54:31.064Z,53.60
2022-10-22T05:57:07.018Z,53.60
2022-10-22T05:59:43.198Z,51.70
2022-10-22T06:02:19.171Z,49.20
2022-10-22T06:04:54.990Z,55.10
2022-10-22T06:07:31.331Z,56.30
2022-10-22T06:10:10.226Z,54.40
2022-10-22T06:12:47.215Z,61.70
2022-10-22T06:15:23.819Z,51.10
2022-10-22T06:17:59.608Z,56.80
2022-10-22T06:20:36.511Z,57.10
2022-10-22T06:23:12.403Z,54.70
2022-10-22T06:25:58.686Z,57.00
2022-10-22T06:28:36.483Z,54.30
2022-10-22T06:31:13.257Z,51.00
2022-10-22T06:33:48.967Z,54.10
2022-10-22T06:36:27.040Z,54.00
2022-10-22T06:39:03.248Z,58.30
2022-10-22T06:41:39.001Z,56.00
2022-10-22T06:44:19.283Z,55.10
2022-10-22T06:46:56.794Z,55.00
2022-10-22T06:49:33.039Z,51.00
2022-10-22T06:52:09.252Z,48.70
2022-10-22T06:54:45.748Z,51.00
2022-10-22T06:57:21.792Z,48.50
2022-10-22T06:59:57.644Z,44.00
2022-10-22T07:02:33.524Z,42.70
2022-10-22T07:05:11.546Z,40.10
2022-10-22T07:07:47.378Z,47.00
2022-10-22T07:10:25.979Z,38.20
2022-10-22T07:13:04.568Z,36.50
2022-10-22T07:15:40.427Z,39.00
2022-10-22T07:18:16.408Z,30.20
2022-10-22T07:20:52.896Z,32.40
2022-10-22T07:23:30.535Z,31.00
2022-10-22T07:26:08.693Z,31.00
2022-10-22T07:28:45.124Z,25.50
2022-10-22T07:31:22.117Z,32.40
2022-10-22T07:33:58.710Z,35.00
2022-10-22T07:36:34.785Z,34.30
2022-10-22T07:39:10.742Z,32.70
2022-10-22T07:41:46.652Z,27.30
2022-10-22T07:44:22.524Z,28.70
2022-10-22T07:46:58.207Z,48.80
2022-10-22T07:49:34.415Z,27.80
2022-10-22T07:52:10.949Z,24.10
2022-10-22T07:54:46.894Z,28.60
2022-10-22T07:57:23.073Z,26.70
2022-10-22T07:59:59.674Z,28.60
2022-10-22T08:02:35.638Z,24.90
2022-10-22T08:05:14.509Z,25.80
2022-10-22T08:07:50.469Z,28.00
2022-10-22T08:10:26.332Z,28.20
2022-10-22T08:13:02.490Z,30.30
2022-10-22T08:15:38.846Z,27.40
2022-10-22T08:18:14.849Z,27.50
2022-10-22T08:20:50.846Z,25.60
2022-10-22T08:23:28.719Z,30.40
2022-10-22T08:26:04.849Z,26.10
2022-10-22T08:28:41.237Z,26.30
2022-10-22T08:31:17.394Z,29.20
2022-10-22T08:33:53.658Z,30.60
2022-10-22T08:36:29.403Z,31.60
2022-10-22T08:39:05.469Z,30.00
2022-10-22T08:41:55.208Z,32.40
2022-10-22T08:45:04.642Z,29.90
2022-10-22T08:48:05.051Z,30.80
2022-10-22T08:50:47.293Z,32.80
2022-10-22T08:53:31.809Z,28.70
2022-10-22T08:56:08.136Z,25.50
2022-10-22T08:58:50.751Z,29.00
2022-10-22T09:01:37.469Z,26.50
2022-10-22T09:04:25.553Z,31.00
2022-10-22T09:07:03.202Z,32.90
2022-10-22T09:09:48.876Z,31.00
2022-10-22T09:12:28.410Z,32.00
2022-10-22T09:15:04.748Z,27.60
2022-10-22T09:17:59.941Z,29.20
2022-10-22T09:20:50.625Z,25.60
2022-10-22T09:23:39.147Z,31.40
2022-10-22T09:26:20.224Z,33.10
2022-10-22T09:29:00.730Z,48.30
2022-10-22T09:31:37.604Z,27.00
2022-10-22T09:34:17.460Z,27.80
2022-10-22T09:37:02.750Z,24.00
2022-10-22T09:39:48.161Z,26.90
2022-10-22T09:42:25.903Z,29.50
2022-10-22T09:45:04.381Z,24.10
2022-10-22T09:48:00.622Z,27.30
2022-10-22T09:50:48.588Z,24.40
2022-10-22T09:53:30.703Z,25.10
2022-10-22T09:56:29.719Z,19.70
2022-10-22T09:59:07.918Z,22.00
2022-10-22T10:01:44.581Z,22.60
2022-10-22T10:04:20.961Z,20.60
2022-10-22T10:07:00.264Z,28.40
2022-10-22T10:09:39.108Z,28.10
2022-10-22T10:12:37.039Z,23.40
2022-10-22T10:15:29.575Z,24.10
2022-10-22T10:18:19.865Z,27.20
2022-10-22T10:21:10.885Z,27.10
2022-10-22T10:23:59.645Z,26.20
2022-10-22T10:26:51.621Z,25.20
2022-10-22T10:32:45.283Z,27.00
2022-10-22T10:35:32.272Z,26.60
2022-10-22T10:38:33.431Z,39.70
2022-10-22T10:41:25.585Z,40.10
2022-10-22T10:44:26.149Z,36.00
2022-10-22T10:47:22.147Z,35.80
2022-10-22T10:50:17.792Z,26.30
2022-10-22T10:53:08.164Z,27.20
2022-10-22T10:56:00.946Z,28.60
2022-10-22T10:58:55.613Z,31.90
2022-10-22T11:01:43.938Z,56.20
2022-10-22T11:05:08.868Z,29.10
2022-10-22T11:07:56.142Z,27.10
2022-10-22T11:10:41.604Z,24.30
2022-10-22T11:13:27.512Z,25.30
2022-10-22T11:16:13.253Z,31.90
2022-10-22T11:18:58.899Z,34.50
2022-10-22T11:21:40.940Z,27.40
2022-10-22T11:27:11.694Z,28.10
2022-10-22T11:29:57.891Z,24.50
2022-10-22T11:32:34.562Z,23.80
2022-10-22T11:35:20.167Z,27.10
2022-10-22T11:38:00.772Z,23.90
2022-10-22T11:40:45.317Z,24.50
2022-10-22T11:43:36.344Z,27.50
2022-10-22T11:46:44.609Z,24.10
2022-10-22T11:49:43.792Z,21.40
2022-10-22T11:52:54.519Z,23.20
2022-10-22T11:55:49.311Z,20.50
2022-10-22T11:58:44.044Z,25.80
2022-10-22T12:01:43.958Z,24.40
2022-10-22T12:04:43.207Z,24.20
2022-10-22T12:07:51.711Z,30.20
2022-10-22T12:10:36.167Z,29.50
2022-10-22T12:13:26.073Z,32.70
2022-10-22T12:16:06.701Z,31.00
2022-10-22T12:18:47.134Z,32.80
2022-10-22T12:21:23.080Z,29.90
2022-10-22T12:23:59.468Z,28.70
2022-10-22T12:26:36.675Z,27.70
2022-10-22T12:29:18.560Z,29.50
2022-10-22T12:34:29.512Z,29.30
2022-10-22T12:37:08.857Z,28.60
2022-10-22T12:39:45.994Z,28.40
2022-10-22T12:42:23.901Z,28.80
2022-10-22T12:45:01.905Z,29.30
2022-10-22T12:47:37.839Z,28.60
2022-10-22T12:50:24.226Z,27.00
2022-10-22T12:53:00.376Z,26.90
2022-10-22T12:55:39.335Z,31.50
2022-10-22T12:58:23.325Z,30.00
2022-10-22T13:01:02.972Z,30.40
2022-10-22T13:03:45.919Z,28.00
2022-10-22T13:06:31.168Z,29.20
2022-10-22T13:09:23.895Z,30.60
2022-10-22T13:12:10.756Z,27.60
2022-10-22T13:14:49.006Z,40.90
2022-10-22T13:17:42.921Z,36.00
2022-10-22T13:20:26.697Z,34.20
2022-10-22T13:23:05.951Z,28.80
2022-10-22T13:25:42.307Z,28.60
2022-10-22T13:28:26.877Z,30.70
2022-10-22T13:31:11.063Z,29.40
2022-10-22T13:33:54.932Z,30.00
2022-10-22T13:36:31.045Z,32.80
2022-10-22T13:39:13.874Z,31.00
2022-10-22T13:41:51.326Z,31.80
2022-10-22T13:44:26.980Z,31.90
2022-10-22T13:47:02.843Z,31.40
2022-10-22T13:49:40.381Z,32.60
2022-10-22T13:52:30.940Z,33.90
2022-10-22T13:55:16.551Z,33.10
2022-10-22T13:57:53.436Z,33.30
2022-10-22T14:00:31.237Z,32.70
2022-10-22T14:03:10.609Z,36.20
2022-10-22T14:05:48.853Z,31.10
2022-10-22T14:08:28.254Z,33.70
2022-10-22T14:11:04.141Z,35.60
2022-10-22T14:13:40.712Z,33.60
2022-10-22T14:16:25.539Z,30.70
2022-10-22T14:19:02.293Z,34.20
2022-10-22T14:21:40.274Z,32.30
2022-10-22T14:24:17.785Z,32.90
2022-10-22T14:26:53.971Z,36.80
2022-10-22T14:29:30.600Z,36.40
2022-10-22T14:32:07.654Z,35.20
2022-10-22T14:34:45.865Z,35.30
2022-10-22T14:37:25.340Z,34.60
2022-10-22T14:40:02.672Z,32.40
2022-10-22T14:42:44.147Z,31.20
2022-10-22T14:45:27.046Z,36.90
2022-10-22T14:48:02.859Z,34.70
2022-10-22T14:50:38.882Z,36.60
2022-10-22T14:53:16.777Z,35.40
2022-10-22T14:55:55.659Z,38.20
2022-10-22T14:58:33.819Z,34.40
2022-10-22T15:01:11.092Z,37.00
2022-10-22T15:03:47.006Z,34.60
2022-10-22T15:06:22.759Z,35.80
2022-10-22T15:08:58.650Z,37.10
2022-10-22T15:11:34.647Z,39.40
2022-10-22T15:14:10.615Z,41.50
2022-10-22T15:16:46.666Z,37.80
2022-10-22T15:19:22.356Z,39.60
2022-10-22T15:21:58.183Z,38.40
2022-10-22T15:24:34.362Z,42.60
2022-10-22T15:27:10.543Z,37.30
2022-10-22T15:29:47.344Z,39.70
2022-10-22T15:32:23.620Z,38.00
2022-10-22T15:35:00.329Z,37.50
2022-10-22T15:37:38.960Z,41.00
2022-10-22T15:40:16.894Z,41.00
2022-10-22T15:42:52.869Z,40.70
2022-10-22T15:45:28.987Z,40.80
2022-10-22T15:48:06.479Z,43.50
2022-10-22T15:50:44.465Z,39.90
2022-10-22T15:53:20.952Z,39.30
2022-10-22T15:55:57.002Z,43.60
2022-10-22T15:58:33.331Z,42.90
2022-10-22T16:01:15.811Z,42.80
2022-10-22T16:04:00.230Z,42.90
2022-10-22T16:06:41.361Z,42.70
2022-10-22T16:09:21.744Z,42.70
2022-10-22T16:11:58.473Z,43.90
2022-10-22T16:14:34.561Z,44.00
2022-10-22T16:17:10.488Z,42.50
2022-10-22T16:19:46.546Z,39.10
2022-10-22T16:22:22.214Z,44.50
2022-10-22T16:24:58.264Z,42.30
2022-10-22T16:27:34.212Z,43.70
2022-10-22T16:30:12.978Z,46.80
2022-10-22T16:32:48.784Z,45.90
2022-10-22T16:35:24.611Z,44.90
2022-10-22T16:38:00.369Z,48.10
2022-10-22T16:40:36.294Z,48.20
2022-10-22T16:43:12.203Z,50.70
2022-10-22T16:45:54.595Z,48.80
2022-10-22T16:48:30.343Z,53.00
2022-10-22T16:51:13.759Z,44.80
2022-10-22T16:53:50.317Z,48.00
2022-10-22T16:56:26.927Z,46.40
2022-10-22T16:59:03.423Z,49.50
2022-10-22T17:01:41.429Z,48.20
2022-10-22T17:04:18.320Z,51.80
2022-10-22T17:06:54.216Z,50.60
2022-10-22T17:09:30.121Z,46.00
2022-10-22T17:12:06.637Z,45.20
2022-10-22T17:14:42.710Z,52.10
2022-10-22T17:17:18.572Z,46.60
2022-10-22T17:19:54.507Z,49.10
2022-10-22T17:22:30.918Z,50.30
2022-10-22T17:25:22.029Z,58.50
2022-10-22T17:27:57.907Z,54.80
2022-10-22T17:30:38.859Z,49.30
2022-10-22T17:33:14.875Z,117.40
2022-10-22T17:35:52.814Z,53.90
2022-10-22T17:38:29.165Z,50.70
2022-10-22T17:41:06.952Z,49.60
2022-10-22T17:46:24.585Z,49.60
2022-10-22T17:49:05.132Z,49.50
2022-10-22T17:51:41.579Z,49.70
2022-10-22T17:54:18.061Z,49.70
2022-10-22T17:56:53.726Z,53.10
2022-10-22T17:59:30.596Z,69.30
2022-10-22T18:02:06.944Z,77.50
2022-10-22T18:04:43.253Z,58.30
2022-10-22T18:07:20.800Z,55.20
2022-10-22T18:09:56.897Z,51.40
2022-10-22T18:12:32.709Z,48.50
2022-10-22T18:15:10.647Z,72.70
2022-10-22T18:17:47.145Z,50.80
2022-10-22T18:20:23.339Z,54.60
2022-10-22T18:23:00.699Z,53.50
2022-10-22T18:25:41.261Z,51.00
2022-10-22T18:28:19.441Z,52.20
2022-10-22T18:30:55.329Z,49.90
2022-10-22T18:33:32.525Z,49.70
2022-10-22T18:36:16.313Z,52.30
2022-10-22T18:38:56.558Z,47.40
2022-10-22T18:41:34.313Z,50.80
2022-10-22T18:44:13.704Z,46.60
2022-10-22T18:46:49.665Z,48.50
2022-10-22T18:49:25.824Z,47.60
2022-10-22T18:52:02.161Z,45.50
2022-10-22T18:54:40.218Z,46.70
2022-10-22T18:57:16.201Z,51.20
2022-10-22T18:59:54.656Z,58.10
2022-10-22T19:02:33.112Z,50.30
2022-10-22T19:05:10.637Z,52.70
2022-10-22T19:07:46.410Z,47.40
2022-10-22T19:10:22.730Z,40.60
2022-10-22T19:12:58.747Z,39.40
2022-10-22T19:15:34.546Z,40.50
2022-10-22T19:18:10.865Z,42.90
2022-10-22T19:20:48.915Z,40.80
2022-10-22T19:23:25.236Z,39.70
2022-10-22T19:26:12.078Z,37.80
2022-10-22T19:28:48.454Z,38.70
2022-10-22T19:31:27.541Z,40.20
2022-10-22T19:34:04.739Z,33.80
2022-10-22T19:36:41.075Z,37.60
2022-10-22T19:39:21.850Z,33.90
2022-10-22T19:41:57.604Z,34.40
2022-10-22T19:44:33.737Z,35.80
2022-10-22T19:47:10.287Z,31.70
2022-10-22T19:49:46.192Z,33.70
2022-10-22T19:52:22.226Z,32.70
2022-10-22T19:54:58.026Z,37.70
2022-10-22T19:57:35.136Z,35.40
2022-10-22T20:00:14.572Z,37.90
2022-10-22T20:02:51.235Z,32.00
2022-10-22T20:05:27.198Z,35.50
2022-10-22T20:08:03.720Z,34.50
2022-10-22T20:10:40.734Z,38.30
2022-10-22T20:13:23.351Z,39.90
2022-10-22T20:16:00.695Z,40.20
2022-10-22T20:18:38.604Z,37.70
2022-10-22T20:21:20.337Z,38.50
2022-10-22T20:23:59.554Z,40.10
2022-10-22T20:26:35.595Z,38.40
2022-10-22T20:29:14.225Z,42.80
2022-10-22T20:31:50.763Z,41.40
2022-10-22T20:34:26.924Z,48.30
2022-10-22T20:37:05.032Z,39.70
2022-10-22T20:39:40.987Z,45.20
2022-10-22T20:42:16.886Z,40.70
2022-10-22T20:44:53.586Z,43.60
2022-10-22T20:47:39.314Z,41.30
2022-10-22T20:50:31.437Z,45.90
2022-10-22T20:53:07.961Z,42.70
2022-10-22T20:55:43.947Z,45.50
2022-10-22T20:58:23.351Z,47.30
2022-10-22T21:01:09.586Z,45.90
2022-10-22T21:03:46.235Z,48.00
2022-10-22T21:06:23.359Z,44.80
2022-10-22T21:08:59.435Z,48.50
2022-10-22T21:11:35.296Z,46.90
2022-10-22T21:14:14.104Z,48.60
2022-10-22T21:16:52.939Z,46.00
2022-10-22T21:19:29.169Z,51.50
2022-10-22T21:22:04.878Z,49.60
2022-10-22T21:24:41.238Z,50.50
2022-10-22T21:27:17.025Z,44.70
2022-10-22T21:29:52.876Z,51.80
2022-10-22T21:32:28.901Z,47.10
2022-10-22T21:35:04.919Z,46.20
2022-10-22T21:37:41.108Z,43.90
2022-10-22T21:40:18.517Z,46.00
2022-10-22T21:42:55.329Z,46.00
2022-10-22T21:45:31.545Z,45.70
2022-10-22T21:48:08.424Z,43.50
2022-10-22T21:50:47.301Z,48.20
2022-10-22T21:53:23.856Z,47.70
2022-10-22T21:55:59.912Z,45.10
2022-10-22T21:58:38.476Z,47.60
2022-10-22T22:01:15.774Z,44.70
2022-10-22T22:03:53.989Z,41.00
2022-10-22T22:06:33.304Z,42.20
2022-10-22T22:09:10.460Z,44.10
2022-10-22T22:11:46.976Z,43.10
2022-10-22T22:14:22.797Z,41.40
2022-10-22T22:16:58.648Z,46.20
2022-10-22T22:19:34.479Z,43.20
2022-10-22T22:22:10.449Z,42.00
2022-10-22T22:24:46.554Z,41.70
2022-10-22T22:27:22.352Z,41.30
2022-10-22T22:29:59.307Z,40.60
2022-10-22T22:32:35.299Z,41.80
2022-10-22T22:35:13.219Z,41.20
2022-10-22T22:37:49.087Z,40.90
2022-10-22T22:40:49.147Z,42.50
2022-10-22T22:43:25.047Z,39.50
2022-10-22T22:46:09.746Z,41.70
2022-10-22T22:48:45.482Z,43.50
2022-10-22T22:51:21.931Z,38.80
2022-10-22T22:54:00.313Z,39.80
2022-10-22T22:56:38.140Z,39.00
2022-10-22T22:59:14.745Z,40.00
2022-10-22T23:01:52.390Z,40.40
2022-10-22T23:04:30.364Z,38.30
2022-10-22T23:07:06.410Z,39.00
2022-10-22T23:09:42.543Z,40.30
2022-10-22T23:12:18.406Z,42.40
2022-10-22T23:14:57.031Z,40.50
2022-10-22T23:20:14.170Z,42.60
2022-10-22T23:22:50.343Z,39.10
2022-10-22T23:25:27.120Z,35.90
2022-10-22T23:28:03.118Z,35.90
2022-10-22T23:30:45.594Z,36.50
2022-10-22T23:33:21.845Z,40.30
2022-10-22T23:35:57.765Z,34.70
2022-10-22T23:38:41.268Z,35.70
2022-10-22T23:41:17.745Z,36.50
2022-10-22T23:43:54.083Z,36.90
2022-10-22T23:46:30.333Z,41.80
2022-10-22T23:49:07.981Z,37.80
2022-10-22T23:51:44.386Z,37.30
2022-10-22T23:54:21.886Z,33.20
2022-10-22T23:56:58.061Z,35.60
2022-10-22T23:59:36.358Z,41.60
